createdAt,value
2023-05-07T00:00:48.172Z,98365.25
2023-05-07T00:03:23.682Z,98369.81
2023-05-07T00:05:53.932Z,98365.56
2023-05-07T00:08:23.902Z,98369.91
2023-05-07T00:10:52.577Z,98369.69
2023-05-07T00:13:21.215Z,98370.41
2023-05-07T00:15:49.990Z,98371.97
2023-05-07T00:18:22.106Z,98373.59
2023-05-07T00:20:50.889Z,98372.41
2023-05-07T00:23:19.269Z,98373.22
2023-05-07T00:25:49.309Z,98376.94
2023-05-07T00:28:17.721Z,98378.03
2023-05-07T00:30:46.649Z,98375.78
2023-05-07T00:33:14.968Z,98379.44
2023-05-07T00:35:44.463Z,98381.44
2023-05-07T00:38:12.881Z,98383.19
2023-05-07T00:40:41.537Z,98384.84
2023-05-07T00:43:11.590Z,98383.91
2023-05-07T00:45:41.032Z,98385.00
2023-05-07T00:48:09.507Z,98393.94
2023-05-07T00:50:38.433Z,98388.50
2023-05-07T00:53:06.859Z,98397.63
2023-05-07T00:55:37.192Z,98385.97
2023-05-07T00:58:05.710Z,98393.88
2023-05-07T01:00:37.241Z,98385.56
2023-05-07T01:03:05.736Z,98380.59
2023-05-07T01:05:34.946Z,98392.72
2023-05-07T01:08:04.284Z,98390.06
2023-05-07T01:10:32.935Z,98396.50
2023-05-07T01:13:02.058Z,98398.63
2023-05-07T01:15:30.789Z,98399.16
2023-05-07T01:18:01.361Z,98400.41
2023-05-07T01:20:30.458Z,98397.72
2023-05-07T01:23:00.187Z,98403.97
2023-05-07T01:25:28.821Z,98409.41
2023-05-07T01:27:57.197Z,98404.75
2023-05-07T01:30:26.005Z,98404.84
2023-05-07T01:32:58.901Z,98414.28
2023-05-07T01:35:31.477Z,98411.34
2023-05-07T01:38:01.355Z,98411.78
2023-05-07T01:40:30.167Z,98402.41
2023-05-07T01:42:58.851Z,98402.72
2023-05-07T01:45:28.041Z,98398.50
2023-05-07T01:47:56.966Z,98404.94
2023-05-07T01:50:25.882Z,98403.09
2023-05-07T01:52:54.759Z,98404.41
2023-05-07T01:55:24.690Z,98403.69
2023-05-07T01:57:53.017Z,98401.06
2023-05-07T02:00:22.566Z,98398.78
2023-05-07T02:02:51.080Z,98405.88
2023-05-07T02:05:20.959Z,98398.19
2023-05-07T02:07:49.303Z,98400.78
2023-05-07T02:10:17.836Z,98405.88
2023-05-07T02:12:47.766Z,98397.00
2023-05-07T02:15:16.490Z,98400.47
2023-05-07T02:18:04.720Z,98405.38
2023-05-07T02:20:33.351Z,98403.84
2023-05-07T02:23:01.837Z,98395.38
2023-05-07T02:25:31.293Z,98405.38
2023-05-07T02:28:01.530Z,98399.81
2023-05-07T02:30:30.637Z,98411.09
2023-05-07T02:32:59.024Z,98405.25
2023-05-07T02:35:27.836Z,98413.84
2023-05-07T02:37:56.280Z,98420.34
2023-05-07T02:40:25.913Z,98405.41
2023-05-07T02:42:54.196Z,98411.69
2023-05-07T02:45:24.477Z,98420.97
2023-05-07T02:47:52.786Z,98419.41
2023-05-07T02:50:21.408Z,98420.72
2023-05-07T02:52:50.166Z,98405.91
2023-05-07T02:55:18.842Z,98415.78
2023-05-07T02:57:47.198Z,98418.59
2023-05-07T03:00:17.553Z,98424.75
2023-05-07T03:02:47.605Z,98417.00
2023-05-07T03:05:16.376Z,98422.63
2023-05-07T03:07:46.362Z,98423.44
2023-05-07T03:10:15.264Z,98428.63
2023-05-07T03:12:43.650Z,98435.88
2023-05-07T03:15:13.749Z,98431.66
2023-05-07T03:17:42.218Z,98440.97
2023-05-07T03:20:14.711Z,98444.94
2023-05-07T03:22:43.654Z,98444.69
2023-05-07T03:25:13.514Z,98449.19
2023-05-07T03:27:43.102Z,98454.50
2023-05-07T03:30:13.162Z,98458.28
2023-05-07T03:32:41.911Z,98458.59
2023-05-07T03:35:12.347Z,98459.41
2023-05-07T03:37:40.655Z,98461.94
2023-05-07T03:40:12.244Z,98464.00
2023-05-07T03:42:40.796Z,98463.47
2023-05-07T03:45:10.989Z,98452.25
2023-05-07T03:47:39.463Z,98462.34
2023-05-07T03:50:08.888Z,98469.91
2023-05-07T03:52:38.762Z,98468.38
2023-05-07T03:55:08.323Z,98469.78
2023-05-07T03:57:36.437Z,98468.56
2023-05-07T04:00:06.950Z,98474.16
2023-05-07T04:02:35.559Z,98482.81
2023-05-07T04:05:04.667Z,98482.03
2023-05-07T04:07:33.233Z,98479.78
2023-05-07T04:10:03.392Z,98480.69
2023-05-07T04:12:32.152Z,98485.53
2023-05-07T04:15:00.700Z,98489.44
2023-05-07T04:17:29.208Z,98486.41
2023-05-07T04:19:57.830Z,98496.13
2023-05-07T04:22:26.096Z,98502.84
2023-05-07T04:24:54.788Z,98502.44
2023-05-07T04:27:24.520Z,98506.84
2023-05-07T04:29:56.992Z,98506.97
2023-05-07T04:32:26.079Z,98509.25
2023-05-07T04:34:55.028Z,98514.91
2023-05-07T04:37:23.352Z,98526.91
2023-05-07T04:39:51.965Z,98529.88
2023-05-07T04:42:20.862Z,98531.19
2023-05-07T04:44:54.968Z,98528.56
2023-05-07T04:47:23.366Z,98531.16
2023-05-07T04:49:52.001Z,98541.47
2023-05-07T04:52:21.611Z,98542.09
2023-05-07T04:54:50.300Z,98545.81
2023-05-07T04:57:19.114Z,98548.19
2023-05-07T04:59:47.909Z,98553.56
2023-05-07T05:02:20.152Z,98556.66
2023-05-07T05:04:49.530Z,98556.94
2023-05-07T05:07:17.758Z,98558.13
2023-05-07T05:09:46.463Z,98562.97
2023-05-07T05:12:14.714Z,98553.34
2023-05-07T05:14:44.061Z,98569.44
2023-05-07T05:17:12.484Z,98564.50
2023-05-07T05:19:42.565Z,98566.16
2023-05-07T05:22:11.112Z,98575.78
2023-05-07T05:24:39.723Z,98573.50
2023-05-07T05:27:07.956Z,98578.84
2023-05-07T05:29:36.780Z,98590.47
2023-05-07T05:32:05.238Z,98584.00
2023-05-07T05:34:34.855Z,98590.88
2023-05-07T05:37:04.553Z,98588.97
2023-05-07T05:39:33.139Z,98594.28
2023-05-07T05:42:01.509Z,98599.59
2023-05-07T05:44:30.110Z,98602.13
2023-05-07T05:47:00.461Z,98600.28
2023-05-07T05:49:29.138Z,98602.69
2023-05-07T05:51:57.784Z,98610.91
2023-05-07T05:54:27.936Z,98606.91
2023-05-07T05:56:56.575Z,98614.47
2023-05-07T05:59:25.814Z,98615.81
2023-05-07T06:01:54.189Z,98606.75
2023-05-07T06:04:22.748Z,98617.22
2023-05-07T06:06:51.372Z,98620.56
2023-05-07T06:09:20.156Z,98624.13
2023-05-07T06:11:49.967Z,98629.84
2023-05-07T06:14:18.785Z,98622.94
2023-05-07T06:16:47.298Z,98626.03
2023-05-07T06:19:16.255Z,98620.06
2023-05-07T06:21:44.576Z,98631.44
2023-05-07T06:24:13.197Z,98636.56
2023-05-07T06:26:41.581Z,98633.72
2023-05-07T06:29:11.638Z,98631.00
2023-05-07T06:31:40.422Z,98637.81
2023-05-07T06:34:09.570Z,98641.41
2023-05-07T06:36:37.846Z,98639.22
2023-05-07T06:39:06.451Z,98645.22
2023-05-07T06:41:35.550Z,98647.16
2023-05-07T06:44:04.099Z,98654.72
2023-05-07T06:46:33.766Z,98643.94
2023-05-07T06:49:02.470Z,98644.75
2023-05-07T06:51:31.315Z,98657.63
2023-05-07T06:53:59.908Z,98655.91
2023-05-07T06:56:31.311Z,98656.28
2023-05-07T06:58:59.915Z,98657.66
2023-05-07T07:01:28.578Z,98658.59
2023-05-07T07:03:58.648Z,98659.59
2023-05-07T07:06:27.141Z,98664.25
2023-05-07T07:08:55.917Z,98664.50
2023-05-07T07:11:24.133Z,98663.41
2023-05-07T07:13:52.886Z,98662.44
2023-05-07T07:16:26.479Z,98669.47
2023-05-07T07:18:55.336Z,98670.66
2023-05-07T07:21:25.394Z,98672.47
2023-05-07T07:23:54.125Z,98673.19
2023-05-07T07:26:22.892Z,98680.56
2023-05-07T07:28:51.604Z,98686.50
2023-05-07T07:31:20.035Z,98689.00
2023-05-07T07:33:49.372Z,98689.72
2023-05-07T07:36:18.713Z,98693.47
2023-05-07T07:38:48.956Z,98693.59
2023-05-07T07:41:17.469Z,98700.53
2023-05-07T07:43:49.154Z,98703.25
2023-05-07T07:46:18.262Z,98711.94
2023-05-07T07:48:47.326Z,98707.56
2023-05-07T07:51:15.985Z,98699.22
2023-05-07T07:53:44.634Z,98703.72
2023-05-07T07:56:14.846Z,98705.75
2023-05-07T07:58:43.379Z,98711.75
2023-05-07T08:01:13.458Z,98715.75
2023-05-07T08:03:42.257Z,98718.28
2023-05-07T08:06:10.750Z,98713.47
2023-05-07T08:08:39.755Z,98714.44
2023-05-07T08:11:08.058Z,98726.44
2023-05-07T08:13:38.261Z,98719.59
2023-05-07T08:16:06.845Z,98720.19
2023-05-07T08:18:35.783Z,98734.81
2023-05-07T08:21:04.391Z,98726.25
2023-05-07T08:23:33.062Z,98725.56
2023-05-07T08:26:01.694Z,98724.91
2023-05-07T08:28:30.514Z,98736.31
2023-05-07T08:31:01.644Z,98736.56
2023-05-07T08:33:30.537Z,98739.63
2023-05-07T08:35:59.342Z,98741.16
2023-05-07T08:38:28.311Z,98744.06
2023-05-07T08:40:56.682Z,98744.94
2023-05-07T08:43:29.254Z,98740.38
2023-05-07T08:45:59.394Z,98753.31
2023-05-07T08:48:28.152Z,98755.38
2023-05-07T08:50:56.818Z,98754.84
2023-05-07T08:53:25.333Z,98758.00
2023-05-07T08:55:54.001Z,98763.34
2023-05-07T08:58:22.505Z,98764.16
2023-05-07T09:00:50.838Z,98768.03
2023-05-07T09:03:21.028Z,98771.69
2023-05-07T09:05:49.444Z,98778.13
2023-05-07T09:08:18.391Z,98780.78
2023-05-07T09:10:47.112Z,98788.34
2023-05-07T09:13:16.137Z,98775.41
2023-05-07T09:15:46.085Z,98784.88
2023-05-07T09:18:16.639Z,98784.28
2023-05-07T09:20:50.477Z,98793.56
2023-05-07T09:23:19.715Z,98798.25
2023-05-07T09:25:48.885Z,98786.22
2023-05-07T09:28:17.662Z,98796.69
2023-05-07T09:30:45.990Z,98784.81
2023-05-07T09:33:14.619Z,98787.16
2023-05-07T09:35:43.322Z,98802.13
2023-05-07T09:38:13.229Z,98794.47
2023-05-07T09:40:42.047Z,98801.50
2023-05-07T09:43:15.819Z,98802.81
2023-05-07T09:45:44.334Z,98795.28
2023-05-07T09:48:13.448Z,98796.34
2023-05-07T09:50:50.741Z,98812.28
2023-05-07T09:53:21.034Z,98800.66
2023-05-07T09:55:49.662Z,98813.28
2023-05-07T09:58:20.456Z,98814.41
2023-05-07T10:00:49.105Z,98818.94
2023-05-07T10:03:18.465Z,98821.75
2023-05-07T10:05:48.617Z,98819.03
2023-05-07T10:10:51.799Z,98823.34
2023-05-07T10:13:21.636Z,98825.34
2023-05-07T10:15:50.520Z,98830.41
2023-05-07T10:18:19.294Z,98840.53
2023-05-07T10:20:48.417Z,98836.28
2023-05-07T10:23:22.090Z,98841.00
2023-05-07T10:25:55.434Z,98845.63
2023-05-07T10:28:29.406Z,98841.78
2023-05-07T10:31:10.554Z,98848.19
2023-05-07T10:33:40.355Z,98851.16
2023-05-07T10:36:09.359Z,98853.13
2023-05-07T10:38:37.923Z,98851.22
2023-05-07T10:41:07.702Z,98858.72
2023-05-07T10:43:42.396Z,98855.91
2023-05-07T10:46:18.668Z,98857.72
2023-05-07T10:49:09.850Z,98848.22
2023-05-07T10:51:39.844Z,98850.47
2023-05-07T10:54:24.013Z,98855.59
2023-05-07T10:56:54.034Z,98854.69
2023-05-07T10:59:35.201Z,98853.50
2023-05-07T11:02:05.623Z,98866.50
2023-05-07T11:04:36.335Z,98864.28
2023-05-07T11:07:32.239Z,98862.16
2023-05-07T11:10:09.023Z,98862.97
2023-05-07T11:13:06.320Z,98874.25
2023-05-07T11:15:44.553Z,98876.63
2023-05-07T11:18:17.415Z,98866.16
2023-05-07T11:20:57.111Z,98877.50
2023-05-07T11:24:11.505Z,98884.28
2023-05-07T11:26:48.213Z,98873.22
2023-05-07T11:29:21.893Z,98877.84
2023-05-07T11:31:52.516Z,98875.03
2023-05-07T11:34:25.004Z,98883.25
2023-05-07T11:36:54.218Z,98886.16
2023-05-07T11:39:29.866Z,98885.59
2023-05-07T11:42:00.915Z,98886.91
2023-05-07T11:44:44.562Z,98890.50
2023-05-07T11:47:13.397Z,98885.34
2023-05-07T11:49:41.794Z,98892.06
2023-05-07T11:52:10.862Z,98880.94
2023-05-07T11:54:39.455Z,98887.38
2023-05-07T11:57:08.543Z,98889.84
2023-05-07T11:59:42.496Z,98888.91
2023-05-07T12:02:12.654Z,98882.13
2023-05-07T12:04:41.329Z,98888.59
2023-05-07T12:07:15.166Z,98888.53
2023-05-07T12:09:43.980Z,98893.03
2023-05-07T12:12:12.677Z,98897.69
2023-05-07T12:14:41.606Z,98900.00
2023-05-07T12:17:10.904Z,98901.41
2023-05-07T12:19:42.027Z,98906.09
2023-05-07T12:22:11.418Z,98908.25
2023-05-07T12:24:47.541Z,98914.00
2023-05-07T12:27:16.945Z,98924.19
2023-05-07T12:29:47.383Z,98915.03
2023-05-07T12:32:17.471Z,98912.53
2023-05-07T12:34:47.760Z,98917.91
2023-05-07T12:37:16.490Z,98926.28
2023-05-07T12:39:50.202Z,98920.97
2023-05-07T12:42:19.551Z,98922.00
2023-05-07T12:44:48.657Z,98923.50
2023-05-07T12:47:17.664Z,98922.28
2023-05-07T12:49:48.268Z,98926.38
2023-05-07T12:52:16.879Z,98939.69
2023-05-07T12:54:46.632Z,98926.34
2023-05-07T12:57:15.292Z,98917.50
2023-05-07T12:59:43.899Z,98920.78
2023-05-07T13:02:12.674Z,98917.53
2023-05-07T13:04:40.934Z,98929.13
2023-05-07T13:07:11.090Z,98941.97
2023-05-07T13:09:39.463Z,98929.22
2023-05-07T13:12:08.282Z,98933.13
2023-05-07T13:14:36.508Z,98921.91
2023-05-07T13:17:05.026Z,98923.25
2023-05-07T13:19:33.295Z,98930.75
2023-05-07T13:22:01.758Z,98931.38
2023-05-07T13:24:31.482Z,98936.56
2023-05-07T13:26:59.972Z,98939.69
2023-05-07T13:29:31.115Z,98933.91
2023-05-07T13:31:59.821Z,98933.00
2023-05-07T13:34:28.085Z,98943.97
2023-05-07T13:36:56.654Z,98937.19
2023-05-07T13:39:25.029Z,98943.03
2023-05-07T13:41:54.893Z,98945.81
2023-05-07T13:44:23.093Z,98939.63
2023-05-07T13:46:52.450Z,98951.69
2023-05-07T13:49:20.716Z,98949.75
2023-05-07T13:51:49.457Z,98937.41
2023-05-07T13:54:18.013Z,98942.63
2023-05-07T13:56:46.618Z,98946.47
2023-05-07T13:59:16.629Z,98939.22
2023-05-07T14:01:48.976Z,98948.84
2023-05-07T14:04:17.671Z,98947.03
2023-05-07T14:06:46.452Z,98942.59
2023-05-07T14:09:14.687Z,98942.94
2023-05-07T14:11:43.616Z,98951.16
2023-05-07T14:14:12.905Z,98951.69
2023-05-07T14:16:42.720Z,98954.97
2023-05-07T14:19:11.166Z,98961.53
2023-05-07T14:21:39.864Z,98970.06
2023-05-07T14:24:09.101Z,98973.31
2023-05-07T14:26:37.782Z,98966.75
2023-05-07T14:29:06.173Z,98966.75
2023-05-07T14:31:35.129Z,98969.22
2023-05-07T14:34:05.419Z,98978.75
2023-05-07T14:36:34.032Z,98980.47
2023-05-07T14:39:02.441Z,98978.81
2023-05-07T14:41:31.068Z,98979.91
2023-05-07T14:44:00.044Z,98979.00
2023-05-07T14:46:28.739Z,98978.16
2023-05-07T14:48:57.092Z,98993.91
2023-05-07T14:51:29.208Z,98987.63
2023-05-07T14:53:57.772Z,99012.78
2023-05-07T14:56:26.747Z,98999.59
2023-05-07T14:58:55.129Z,98997.41
2023-05-07T15:01:23.688Z,98995.75
2023-05-07T15:03:52.147Z,99001.19
2023-05-07T15:06:20.730Z,98999.13
2023-05-07T15:08:50.717Z,98988.16
2023-05-07T15:11:19.130Z,98991.16
2023-05-07T15:13:47.507Z,98999.66
2023-05-07T15:16:16.183Z,98996.09
2023-05-07T15:18:44.979Z,99004.53
2023-05-07T15:21:13.713Z,99029.03
2023-05-07T15:23:42.429Z,99020.06
2023-05-07T15:26:12.746Z,99013.69
2023-05-07T15:28:41.438Z,99021.28
2023-05-07T15:31:10.282Z,99016.00
2023-05-07T15:33:38.588Z,99014.56
2023-05-07T15:36:07.911Z,99014.06
2023-05-07T15:38:36.388Z,99005.38
2023-05-07T15:41:05.340Z,99014.63
2023-05-07T15:43:35.056Z,99010.63
2023-05-07T15:46:03.578Z,99009.81
2023-05-07T15:48:31.926Z,99025.41
2023-05-07T15:51:01.028Z,99030.22
2023-05-07T15:53:29.655Z,99024.78
2023-05-07T15:55:58.172Z,99022.06
2023-05-07T15:58:26.590Z,99018.25
2023-05-07T16:00:56.578Z,99020.97
2023-05-07T16:03:25.094Z,99025.00
2023-05-07T16:05:54.164Z,99030.72
2023-05-07T16:08:22.972Z,99017.41
2023-05-07T16:10:52.465Z,99029.94
2023-05-07T16:13:21.099Z,99028.16
2023-05-07T16:15:49.783Z,99030.53
2023-05-07T16:18:22.261Z,99026.34
2023-05-07T16:20:51.160Z,99028.88
2023-05-07T16:23:19.473Z,99029.63
2023-05-07T16:25:48.974Z,99027.38
2023-05-07T16:28:17.324Z,99030.94
2023-05-07T16:30:45.893Z,99028.72
2023-05-07T16:33:14.323Z,99029.28
2023-05-07T16:35:47.650Z,99034.59
2023-05-07T16:38:16.196Z,99034.56
2023-05-07T16:40:44.661Z,99050.34
2023-05-07T16:43:12.862Z,99038.63
2023-05-07T16:45:41.562Z,99035.78
2023-05-07T16:48:10.010Z,99043.09
2023-05-07T16:50:38.772Z,99034.47
2023-05-07T16:53:08.517Z,99041.69
2023-05-07T16:55:39.032Z,99052.25
2023-05-07T16:58:07.766Z,99039.81
2023-05-07T17:00:48.955Z,99040.09
2023-05-07T17:03:19.481Z,99041.75
2023-05-07T17:05:48.006Z,99054.00
2023-05-07T17:08:18.024Z,99054.88
2023-05-07T17:10:46.563Z,99052.47
2023-05-07T17:13:15.229Z,99057.47
2023-05-07T17:15:45.200Z,99057.13
2023-05-07T17:18:13.908Z,99049.84
2023-05-07T17:20:42.196Z,99054.25
2023-05-07T17:23:11.158Z,99062.50
2023-05-07T17:25:45.563Z,99057.28
2023-05-07T17:28:14.621Z,99060.69
2023-05-07T17:30:43.213Z,99056.94
2023-05-07T17:33:20.889Z,99066.16
2023-05-07T17:35:50.226Z,99078.09
2023-05-07T17:38:18.870Z,99078.69
2023-05-07T17:40:48.769Z,99074.13
2023-05-07T17:43:17.561Z,99074.38
2023-05-07T17:45:45.959Z,99088.34
2023-05-07T17:48:14.589Z,99083.94
2023-05-07T17:50:46.588Z,99074.50
2023-05-07T17:53:17.297Z,99085.34
2023-05-07T17:55:46.510Z,99077.63
2023-05-07T17:58:16.285Z,99073.38
2023-05-07T18:00:44.602Z,99081.59
2023-05-07T18:03:13.178Z,99079.06
2023-05-07T18:05:41.880Z,99094.00
2023-05-07T18:08:10.785Z,99083.22
2023-05-07T18:10:39.048Z,99090.00
2023-05-07T18:13:07.592Z,99098.03
2023-05-07T18:15:37.504Z,99091.28
2023-05-07T18:18:06.722Z,99095.38
2023-05-07T18:20:34.887Z,99102.84
2023-05-07T18:23:04.656Z,99106.66
2023-05-07T18:25:32.989Z,99101.19
2023-05-07T18:28:01.688Z,99096.06
2023-05-07T18:30:29.988Z,99098.50
2023-05-07T18:32:59.903Z,99112.47
2023-05-07T18:35:28.296Z,99114.44
2023-05-07T18:37:56.935Z,99109.72
2023-05-07T18:40:25.302Z,99107.59
2023-05-07T18:42:54.190Z,99119.00
2023-05-07T18:45:24.798Z,99105.25
2023-05-07T18:47:54.075Z,99124.09
2023-05-07T18:50:24.704Z,99121.22
2023-05-07T18:52:53.318Z,99119.63
2023-05-07T18:55:22.607Z,99122.94
2023-05-07T18:57:51.204Z,99118.88
2023-05-07T19:00:19.556Z,99129.22
2023-05-07T19:02:48.477Z,99116.22
2023-05-07T19:05:18.484Z,99127.69
2023-05-07T19:07:48.577Z,99115.28
2023-05-07T19:10:17.470Z,99133.00
2023-05-07T19:12:46.116Z,99127.41
2023-05-07T19:15:14.454Z,99122.56
2023-05-07T19:17:42.968Z,99126.19
2023-05-07T19:20:12.514Z,99131.94
2023-05-07T19:22:41.136Z,99126.56
2023-05-07T19:25:11.729Z,99139.56
2023-05-07T19:27:40.554Z,99141.72
2023-05-07T19:30:10.845Z,99152.75
2023-05-07T19:32:40.914Z,99146.78
2023-05-07T19:35:09.781Z,99142.38
2023-05-07T19:37:38.434Z,99143.31
2023-05-07T19:40:08.914Z,99138.47
2023-05-07T19:42:38.996Z,99135.38
2023-05-07T19:45:08.488Z,99146.47
2023-05-07T19:47:37.051Z,99152.03
2023-05-07T19:50:05.691Z,99153.41
2023-05-07T19:52:34.186Z,99142.81
2023-05-07T19:55:03.329Z,99165.88
2023-05-07T19:57:32.093Z,99153.94
2023-05-07T20:00:01.999Z,99155.03
2023-05-07T20:02:33.795Z,99159.19
2023-05-07T20:05:02.307Z,99152.28
2023-05-07T20:07:31.137Z,99167.13
2023-05-07T20:09:59.364Z,99156.91
2023-05-07T20:12:27.903Z,99164.78
2023-05-07T20:14:56.287Z,99159.34
2023-05-07T20:17:26.520Z,99156.19
2023-05-07T20:19:55.703Z,99161.03
2023-05-07T20:22:24.920Z,99158.81
2023-05-07T20:24:53.325Z,99158.13
2023-05-07T20:27:24.979Z,99161.91
2023-05-07T20:29:53.981Z,99163.91
2023-05-07T20:32:22.564Z,99164.13
2023-05-07T20:34:52.263Z,99179.50
2023-05-07T20:37:20.914Z,99167.19
2023-05-07T20:39:49.579Z,99171.22
2023-05-07T20:42:18.518Z,99173.16
2023-05-07T20:44:46.785Z,99173.47
2023-05-07T20:47:20.634Z,99177.50
2023-05-07T20:49:53.708Z,99183.66
2023-05-07T20:52:22.392Z,99180.94
2023-05-07T20:54:50.897Z,99184.63
2023-05-07T20:57:20.190Z,99175.19
2023-05-07T20:59:51.671Z,99182.75
2023-05-07T21:02:20.357Z,99189.34
2023-05-07T21:04:51.453Z,99184.78
2023-05-07T21:07:21.456Z,99185.91
2023-05-07T21:09:49.773Z,99178.97
2023-05-07T21:12:18.452Z,99192.69
2023-05-07T21:14:47.205Z,99183.22
2023-05-07T21:17:15.776Z,99184.22
2023-05-07T21:19:44.249Z,99184.09
2023-05-07T21:22:13.152Z,99193.69
2023-05-07T21:24:42.820Z,99188.00
2023-05-07T21:27:11.367Z,99190.41
2023-05-07T21:29:39.739Z,99191.06
2023-05-07T21:32:08.294Z,99188.47
2023-05-07T21:34:36.518Z,99203.88
2023-05-07T21:37:05.214Z,99188.63
2023-05-07T21:39:33.385Z,99191.97
2023-05-07T21:42:03.533Z,99198.28
2023-05-07T21:44:32.802Z,99199.88
2023-05-07T21:47:01.632Z,99191.38
2023-05-07T21:49:29.997Z,99194.81
2023-05-07T21:51:59.959Z,99200.56
2023-05-07T21:54:28.241Z,99207.94
2023-05-07T21:56:56.848Z,99204.19
2023-05-07T21:59:26.540Z,99202.91
2023-05-07T22:01:55.458Z,99194.22
2023-05-07T22:04:23.908Z,99204.69
2023-05-07T22:06:52.791Z,99204.41
2023-05-07T22:09:21.129Z,99208.44
2023-05-07T22:11:49.613Z,99207.53
2023-05-07T22:14:19.041Z,99205.38
2023-05-07T22:16:50.262Z,99201.53
2023-05-07T22:19:18.663Z,99211.09
2023-05-07T22:21:47.338Z,99205.38
2023-05-07T22:24:15.869Z,99209.41
2023-05-07T22:26:45.222Z,99214.22
2023-05-07T22:29:13.680Z,99209.13
2023-05-07T22:31:42.305Z,99212.75
2023-05-07T22:34:11.915Z,99215.13
2023-05-07T22:36:40.257Z,99206.09
2023-05-07T22:39:10.161Z,99207.44
2023-05-07T22:41:38.603Z,99199.34
2023-05-07T22:44:07.012Z,99187.75
2023-05-07T22:46:35.542Z,99194.22
2023-05-07T22:49:04.201Z,99190.78
2023-05-07T22:51:34.160Z,99200.59
2023-05-07T22:54:02.459Z,99190.16
2023-05-07T22:56:30.986Z,99190.09
2023-05-07T22:58:59.645Z,99197.00
2023-05-07T23:01:28.132Z,99185.09
2023-05-07T23:03:56.387Z,99184.13
2023-05-07T23:06:25.092Z,99187.56
2023-05-07T23:08:55.072Z,99177.75
2023-05-07T23:11:23.801Z,99183.81
2023-05-07T23:13:52.006Z,99185.44
2023-05-07T23:16:20.916Z,99190.50
2023-05-07T23:18:49.445Z,99181.81
2023-05-07T23:21:17.992Z,99185.78
2023-05-07T23:23:47.782Z,99185.72
2023-05-07T23:26:17.698Z,99182.13
2023-05-07T23:28:46.558Z,99184.47
2023-05-07T23:31:15.508Z,99187.56
2023-05-07T23:33:43.861Z,99188.00
2023-05-07T23:36:12.284Z,99182.38
2023-05-07T23:38:40.534Z,99179.88
2023-05-07T23:41:09.047Z,99170.66
2023-05-07T23:43:38.580Z,99172.63
2023-05-07T23:46:07.505Z,99177.41
2023-05-07T23:48:35.699Z,99185.63
2023-05-07T23:51:04.256Z,99177.22
2023-05-07T23:53:32.660Z,99177.00
2023-05-07T23:56:01.379Z,99179.41
2023-05-07T23:58:29.622Z,99169.84
